Louisville, Nebraska
Current Conditions -  °F | °C
As of 2:55 PM on Sunday 23 Nov 2014 (Local Time) from KPMV Reporting Station
Overcast Overcast  
Wind Chill: 36°   Ceiling: 5500
Heat Index: 45°   Visibility: 10mi
Dew Point: 37°   Wind: 22mph
Humidity: 73%   Direction: 320°NW
Pressure: 29.46"   Gusts: 29mph
Location:  41°N, 96.16°W
Report Text: KPMV 232055Z AUTO 32019G25KT 10SM SCT041 OVC055 07/03 A2946 RMK AO2 T00700025
Loading
Personal Weather Stations






























Interactive Weather Map New forecast layout! Learn more

10-Day Weather Forecast

Advertisements
Track Severe Weather on mobile